Time;durP1;ratioP1;P1;durP2;ratioP2;P2;SDS_P1;SDS_P2;PMS_P1;PMS_P2;Temp;Humidity;BMP_temperature;BMP_pressure;BME280_temperature;BME280_humidity;BME280_pressure;Samples;Min_cycle;Max_cycle;Signal;HPM_P1;HPM_P2
2021/12/24 00:05:02;;;;;;;49.13;18.35;;;2.00;99.90;;;;;;20646369;28;20038;-74
2021/12/24 00:15:16;;;;;;;44.17;17.35;;;1.80;99.90;;;;;;20676870;28;20030;-75
2021/12/24 00:35:36;;;;;;;40.80;15.15;;;1.40;99.90;;;;;;20675368;28;20512;-76
2021/12/24 00:45:42;;;;;;;37.42;15.15;;;1.60;99.90;;;;;;20656589;28;20038;-75
2021/12/24 00:55:42;;;;;;;40.95;15.48;;;1.50;99.90;;;;;;20655385;28;20038;-74
2021/12/24 01:05:44;;;;;;;36.55;14.90;;;1.50;99.90;;;;;;20672879;28;20255;-76
2021/12/24 01:46:19;;;;;;;40.72;17.33;;;1.70;99.90;;;;;;20652344;28;20080;-75
2021/12/24 01:56:20;;;;;;;34.65;14.70;;;1.70;99.90;;;;;;20651591;28;20038;-74
2021/12/24 02:06:21;;;;;;;46.50;15.20;;;1.50;99.90;;;;;;20650956;28;20455;-74
2021/12/24 02:36:45;;;;;;;41.80;15.13;;;1.00;99.90;;;;;;20745961;28;20117;-76
2021/12/24 02:57:07;;;;;;;53.75;19.58;;;0.70;99.90;;;;;;20747179;28;20041;-76
2021/12/24 03:07:08;;;;;;;47.00;18.67;;;0.80;99.90;;;;;;20743969;28;20033;-76
2021/12/24 03:17:13;;;;;;;52.38;20.95;;;0.70;99.90;;;;;;20743179;28;20551;-76
2021/12/24 03:27:15;;;;;;;52.10;19.80;;;0.80;99.90;;;;;;20742728;28;20049;-76
2021/12/24 03:37:16;;;;;;;41.92;18.20;;;0.90;99.90;;;;;;20742363;28;20037;-76
2021/12/24 03:47:19;;;;;;;39.63;18.40;;;0.90;99.90;;;;;;20741852;28;20037;-76
2021/12/24 03:57:39;;;;;;;43.60;16.55;;;1.00;99.90;;;;;;20741796;28;20211;-76
2021/12/24 04:08:15;;;;;;;29.50;14.50;;;1.00;99.90;;;;;;20668945;28;20034;-76
2021/12/24 04:28:33;;;;;;;41.90;19.10;;;1.30;99.90;;;;;;20741022;28;20032;-75
2021/12/24 04:38:47;;;;;;;46.72;18.52;;;1.30;99.90;;;;;;20741356;28;20026;-76
2021/12/24 05:09:29;;;;;;;42.05;16.02;;;1.50;99.90;;;;;;20752730;28;20033;-76
2021/12/24 05:30:11;;;;;;;34.40;15.20;;;1.10;99.90;;;;;;20751184;28;20084;-76
2021/12/24 05:40:12;;;;;;;31.67;14.15;;;1.00;99.90;;;;;;20750670;28;20432;-77
2021/12/24 05:50:13;;;;;;;37.20;15.48;;;1.00;99.90;;;;;;20749526;28;20034;-77
2021/12/24 06:00:39;;;;;;;42.47;17.30;;;1.20;99.90;;;;;;20750002;28;20112;-75
2021/12/24 06:10:41;;;;;;;42.80;16.35;;;1.30;99.90;;;;;;20747966;28;20500;-76
2021/12/24 06:20:42;;;;;;;38.67;17.10;;;1.50;99.90;;;;;;20748371;28;20077;-77
2021/12/24 06:30:43;;;;;;;41.20;16.70;;;1.50;99.90;;;;;;20749697;28;20026;-76
2021/12/24 06:40:44;;;;;;;53.63;23.65;;;1.60;99.90;;;;;;20747307;28;20037;-75
2021/12/24 06:50:46;;;;;;;42.83;19.63;;;1.60;99.90;;;;;;20746464;28;20030;-77
2021/12/24 07:00:46;;;;;;;39.70;16.33;;;1.70;99.90;;;;;;20744625;28;20088;-77
2021/12/24 07:10:48;;;;;;;39.35;16.58;;;1.80;99.90;;;;;;20743948;28;20034;-76
2021/12/24 07:20:48;;;;;;;34.33;15.65;;;2.20;99.90;;;;;;20743799;28;20112;-76
2021/12/24 07:30:49;;;;;;;38.78;15.60;;;2.20;99.90;;;;;;20744303;28;20065;-75
2021/12/24 07:40:51;;;;;;;48.80;19.65;;;2.20;99.90;;;;;;20744349;28;20188;-75
2021/12/24 08:00:53;;;;;;;36.15;15.85;;;2.30;99.90;;;;;;20743900;28;20492;-77
2021/12/24 08:10:53;;;;;;;34.08;14.80;;;2.60;99.90;;;;;;20716062;28;20039;-78
2021/12/24 08:20:54;;;;;;;33.97;14.60;;;2.90;99.90;;;;;;20691183;23;20500;-76
2021/12/24 08:30:56;;;;;;;36.25;15.85;;;3.00;99.90;;;;;;20667346;28;20026;-75
2021/12/24 08:40:57;;;;;;;32.40;14.60;;;2.90;99.90;;;;;;20673798;28;20030;-76
2021/12/24 08:50:57;;;;;;;31.08;13.75;;;3.10;99.90;;;;;;20672873;28;20546;-76
2021/12/24 09:00:59;;;;;;;30.85;14.10;;;3.20;99.90;;;;;;20673281;28;20434;-75
2021/12/24 09:11:01;;;;;;;27.27;13.88;;;3.30;99.90;;;;;;20655125;28;20566;-76
2021/12/24 09:21:03;;;;;;;35.15;14.18;;;3.40;99.90;;;;;;20653167;28;20500;-76
2021/12/24 09:31:04;;;;;;;25.13;13.43;;;3.50;99.90;;;;;;20652527;28;20063;-76
2021/12/24 09:41:05;;;;;;;;;;;3.50;99.90;;;;;;20671629;28;20049;-75
2021/12/24 09:51:06;;;;;;;33.65;15.77;;;3.60;99.90;;;;;;20649624;28;19924;-76
2021/12/24 10:01:07;;;;;;;34.40;15.15;;;3.70;99.90;;;;;;20648203;28;20095;-76
2021/12/24 10:11:11;;;;;;;;;;;3.80;99.90;;;;;;20631247;28;20039;-76
2021/12/24 10:21:24;;;;;;;31.17;14.73;;;3.80;99.90;;;;;;20646408;28;19968;-77
2021/12/24 10:31:31;;;;;;;26.58;14.80;;;3.90;99.90;;;;;;20647343;28;20049;-76
2021/12/24 10:41:43;;;;;;;27.85;12.65;;;3.90;99.90;;;;;;20646222;28;20100;-76
2021/12/24 10:52:01;;;;;;;25.77;12.93;;;4.00;99.90;;;;;;20644881;28;20038;-76
2021/12/24 11:02:12;;;;;;;27.48;13.07;;;4.10;99.90;;;;;;20644785;28;20026;-76
2021/12/24 11:12:33;;;;;;;;;;;4.00;99.90;;;;;;20644101;28;20129;-75
2021/12/24 11:22:54;;;;;;;31.33;16.23;;;3.80;99.90;;;;;;20642569;28;19918;-76
2021/12/24 11:32:56;;;;;;;31.50;15.10;;;3.80;99.90;;;;;;20588295;28;20041;-77
2021/12/24 11:43:02;;;;;;;29.02;14.55;;;3.90;99.90;;;;;;20617865;28;20030;-76
2021/12/24 11:53:08;;;;;;;34.78;15.13;;;4.10;99.90;;;;;;20624105;28;20731;-76
2021/12/24 12:03:10;;;;;;;33.78;15.27;;;4.10;99.90;;;;;;20637094;28;20535;-76
2021/12/24 12:13:37;;;;;;;33.45;14.32;;;4.10;99.90;;;;;;20656050;28;20034;-76
2021/12/24 12:24:04;;;;;;;33.20;15.95;;;4.00;99.90;;;;;;20654721;28;20088;-76
2021/12/24 12:34:40;;;;;;;43.97;18.70;;;4.00;99.90;;;;;;20684812;28;20672;-75
2021/12/24 12:44:46;;;;;;;33.13;16.50;;;4.00;99.90;;;;;;20665975;28;20450;-77
2021/12/24 12:54:58;;;;;;;37.80;19.08;;;4.00;99.90;;;;;;20657540;28;20149;-77
2021/12/24 13:05:11;;;;;;;33.95;18.40;;;4.10;99.90;;;;;;20596068;28;20030;-76
2021/12/24 13:15:16;;;;;;;39.65;18.60;;;4.10;99.90;;;;;;20601072;28;20632;-78
2021/12/24 13:25:17;;;;;;;37.22;19.58;;;4.00;99.90;;;;;;20614708;28;20057;-77
2021/12/24 13:35:41;;;;;;;43.00;20.23;;;4.10;99.90;;;;;;20647602;28;20034;-76
2021/12/24 13:45:44;;;;;;;36.80;17.98;;;4.20;99.90;;;;;;20622594;28;20046;-77
2021/12/24 13:55:46;;;;;;;31.77;17.27;;;4.30;99.90;;;;;;20636822;28;20496;-77
2021/12/24 14:05:49;;;;;;;36.05;19.08;;;4.30;99.90;;;;;;20618272;28;20023;-77
2021/12/24 14:16:41;;;;;;;39.28;19.27;;;4.30;99.90;;;;;;20631460;28;20493;-76
2021/12/24 14:26:16;;;;;;;32.38;17.63;;;4.40;99.90;;;;;;20658545;23;20464;-79
2021/12/24 14:36:19;;;;;;;39.70;21.02;;;4.50;99.90;;;;;;20661263;28;20050;-79
2021/12/24 14:46:19;;;;;;;34.78;17.02;;;4.60;99.90;;;;;;20626077;28;20564;-78
2021/12/24 14:56:20;;;;;;;29.00;16.05;;;4.50;99.90;;;;;;20657001;28;20180;-80
2021/12/24 15:06:30;;;;;;;29.85;14.50;;;4.60;99.90;;;;;;20640470;28;20125;-78
2021/12/24 15:16:35;;;;;;;36.28;18.30;;;4.50;99.90;;;;;;20641228;28;20045;-81
2021/12/24 15:26:37;;;;;;;34.22;17.75;;;4.50;99.90;;;;;;20654774;28;20054;-79
2021/12/24 15:36:38;;;;;;;25.27;14.25;;;4.40;99.90;;;;;;20643370;28;20383;-81
2021/12/24 15:46:40;;;;;;;27.15;15.02;;;4.20;99.90;;;;;;20610508;28;20034;-80
2021/12/24 15:56:41;;;;;;;29.23;17.17;;;4.20;99.90;;;;;;20611253;28;20188;-79
2021/12/24 16:06:42;;;;;;;27.80;15.73;;;4.20;99.90;;;;;;20675159;28;20150;-78
2021/12/24 16:16:44;;;;;;;26.83;15.30;;;4.30;99.90;;;;;;20668918;28;20066;-77
2021/12/24 16:26:45;;;;;;;26.58;14.80;;;4.40;99.90;;;;;;20663922;28;20572;-77
2021/12/24 16:36:47;;;;;;;25.63;14.30;;;4.40;99.90;;;;;;20666117;28;20054;-77
2021/12/24 16:46:48;;;;;;;34.20;15.82;;;4.40;99.90;;;;;;20617936;28;20038;-78
2021/12/24 16:56:48;;;;;;;23.73;13.07;;;4.50;99.90;;;;;;20634607;28;20034;-77
2021/12/24 17:06:51;;;;;;;24.73;13.80;;;4.40;99.90;;;;;;20648998;28;20526;-78
2021/12/24 17:16:51;;;;;;;30.02;14.73;;;4.20;99.90;;;;;;20633728;28;20054;-78
2021/12/24 17:26:53;;;;;;;23.95;13.25;;;4.20;99.90;;;;;;20628477;28;20504;-78
2021/12/24 17:36:54;;;;;;;32.55;16.88;;;4.20;99.90;;;;;;20612376;28;20043;-77
2021/12/24 17:46:55;;;;;;;29.77;13.77;;;4.20;99.90;;;;;;20635894;28;20409;-76
2021/12/24 17:56:56;;;;;;;33.58;17.10;;;4.10;99.90;;;;;;20595150;28;20036;-79
2021/12/24 18:06:57;;;;;;;;;;;4.30;99.90;;;;;;20621458;28;20102;-76
2021/12/24 18:16:58;;;;;;;33.90;16.88;;;4.10;99.90;;;;;;20617975;28;19968;-77
2021/12/24 18:26:59;;;;;;;32.67;17.88;;;4.10;99.90;;;;;;20599515;28;20088;-78
2021/12/24 18:37:00;;;;;;;;;;;4.10;99.90;;;;;;20585887;28;20038;-78
2021/12/24 18:47:01;;;;;;;33.97;17.80;;;4.20;99.90;;;;;;20645346;28;19924;-78
2021/12/24 18:57:02;;;;;;;38.13;18.75;;;4.10;99.90;;;;;;20607155;28;20305;-78
2021/12/24 19:07:02;;;;;;;;;;;4.10;99.90;;;;;;20614155;28;20026;-75
2021/12/24 19:17:04;;;;;;;34.80;16.83;;;4.00;99.90;;;;;;20610331;28;20304;-78
2021/12/24 19:27:05;;;;;;;33.28;16.23;;;4.10;99.90;;;;;;20597664;28;20165;-77
2021/12/24 19:37:06;;;;;;;;;;;4.20;99.90;;;;;;20604626;28;20042;-79
2021/12/24 19:47:07;;;;;;;34.85;17.08;;;4.30;99.90;;;;;;20624907;28;19921;-77
2021/12/24 19:57:10;;;;;;;;;;;4.20;99.90;;;;;;20608457;28;20448;-77
2021/12/24 20:07:11;;;;;;;30.27;16.80;;;4.30;99.90;;;;;;20574048;28;19929;-77
2021/12/24 20:17:12;;;;;;;32.63;15.55;;;4.40;99.90;;;;;;20604872;28;20061;-76
2021/12/24 20:27:13;;;;;;;;;;;4.20;99.90;;;;;;20646076;28;20054;-77
2021/12/24 20:37:14;;;;;;;24.65;12.88;;;4.00;99.90;;;;;;20662449;23;19922;-75
2021/12/24 20:47:16;;;;;;;;;;;3.80;99.90;;;;;;20611613;28;20444;-74
2021/12/24 20:57:20;;;;;;;25.13;13.68;;;3.20;99.90;;;;;;20630734;28;19925;-75
2021/12/24 21:07:21;;;;;;;26.02;12.93;;;3.30;99.90;;;;;;20631758;28;20584;-75
2021/12/24 21:17:22;;;;;;;24.95;13.10;;;3.30;99.90;;;;;;20612542;28;20054;-76
2021/12/24 21:27:25;;;;;;;24.77;12.88;;;3.40;99.90;;;;;;20606132;28;20031;-76
2021/12/24 21:37:26;;;;;;;28.08;15.15;;;3.40;99.90;;;;;;20615459;28;20484;-76
2021/12/24 21:47:27;;;;;;;33.45;13.30;;;3.40;99.90;;;;;;20665360;28;20037;-75
2021/12/24 21:57:28;;;;;;;;;;;3.40;99.90;;;;;;20653165;28;20032;-75
2021/12/24 22:17:54;;;;;;;26.75;12.88;;;3.40;99.90;;;;;;20668586;28;20318;-75
2021/12/24 22:27:55;;;;;;;33.25;14.65;;;3.40;99.90;;;;;;20650548;28;20042;-75
2021/12/24 22:37:56;;;;;;;;;;;3.30;99.90;;;;;;20667170;28;20390;-75
2021/12/24 22:47:57;;;;;;;34.53;15.75;;;3.40;99.90;;;;;;20665985;28;19913;-75
2021/12/24 22:58:05;;;;;;;29.27;14.60;;;3.40;99.90;;;;;;20665412;28;20042;-75
2021/12/24 23:08:09;;;;;;;37.17;17.45;;;3.30;99.90;;;;;;20664687;28;20038;-75
2021/12/24 23:18:12;;;;;;;25.35;13.52;;;3.40;99.90;;;;;;20664340;28;20516;-75
2021/12/24 23:28:13;;;;;;;32.42;15.48;;;3.30;99.90;;;;;;20663150;28;20027;-75
2021/12/24 23:38:15;;;;;;;;;;;3.30;99.90;;;;;;20663069;28;20157;-75
2021/12/24 23:48:16;;;;;;;36.67;17.80;;;3.40;99.90;;;;;;20628640;28;19913;-75
2021/12/24 23:58:16;;;;;;;;;;;3.50;99.90;;;;;;20650636;28;20077;-74
